createdAt,value
2023-10-01T00:21:06.528Z,9.52
2023-10-01T00:51:10.178Z,9.61
2023-10-01T01:21:13.490Z,9.83
2023-10-01T01:51:17.293Z,9.92
2023-10-01T02:21:20.451Z,10.06
2023-10-01T02:51:23.495Z,10.14
2023-10-01T03:21:27.270Z,10.24
2023-10-01T03:51:30.248Z,10.29
2023-10-01T04:21:34.335Z,10.46
2023-10-01T04:51:37.242Z,10.37
2023-10-01T05:21:40.724Z,10.61
2023-10-01T05:51:43.872Z,10.47
2023-10-01T06:21:47.933Z,10.80
2023-10-01T06:51:51.104Z,11.38
2023-10-01T07:21:54.502Z,11.95
2023-10-01T07:51:57.628Z,12.72
2023-10-01T08:22:00.969Z,13.80
2023-10-01T08:52:04.353Z,14.97
2023-10-01T09:22:07.434Z,15.57
2023-10-01T09:52:10.937Z,16.02
2023-10-01T10:22:14.233Z,17.59
2023-10-01T10:52:20.251Z,18.04
2023-10-01T11:22:23.419Z,17.84
2023-10-01T11:52:27.095Z,18.03
2023-10-01T12:22:30.588Z,17.76
2023-10-01T12:52:34.150Z,17.79
2023-10-01T13:22:37.358Z,18.19
2023-10-01T13:52:40.988Z,17.84
2023-10-01T14:22:44.266Z,17.54
2023-10-01T14:52:47.692Z,17.14
2023-10-01T15:22:51.186Z,17.11
2023-10-01T15:52:54.174Z,16.73
2023-10-01T16:22:58.033Z,16.39
2023-10-01T16:53:00.985Z,15.95
2023-10-01T17:23:05.756Z,15.38
2023-10-01T17:53:08.810Z,15.00
2023-10-01T18:23:11.942Z,14.58
2023-10-01T18:53:15.662Z,13.94
2023-10-01T19:23:19.058Z,13.80
2023-10-01T19:53:23.006Z,13.61
2023-10-01T20:23:26.172Z,13.62
2023-10-01T20:53:29.072Z,13.38
2023-10-01T21:23:32.872Z,13.43
2023-10-01T21:53:36.579Z,13.47
2023-10-01T22:23:40.737Z,13.37
2023-10-01T22:53:44.421Z,13.27
2023-10-01T23:23:47.519Z,13.27
2023-10-01T23:53:50.574Z,13.21
